sensor_id;sensor_type;location;lat;lon;timestamp;pressure;altitude;pressure_sealevel;temperature;humidity
71716;BME280;59568;52.128;5.434;2023-02-12T00:01:15;104002.72;;;6.81;92.36
71716;BME280;59568;52.128;5.434;2023-02-12T00:03:42;104000.13;;;6.81;92.13
71716;BME280;59568;52.128;5.434;2023-02-12T00:06:10;103998.31;;;6.82;92.05
71716;BME280;59568;52.128;5.434;2023-02-12T00:08:40;104000.13;;;6.81;92.39
71716;BME280;59568;52.128;5.434;2023-02-12T00:13:34;103988.72;;;6.82;92.11
71716;BME280;59568;52.128;5.434;2023-02-12T00:16:10;103995.72;;;6.82;92.15
71716;BME280;59568;52.128;5.434;2023-02-12T00:18:37;103998.31;;;6.82;92.33
71716;BME280;59568;52.128;5.434;2023-02-12T00:21:05;104002.88;;;6.79;92.22
71716;BME280;59568;52.128;5.434;2023-02-12T00:23:34;103999.66;;;6.77;91.94
71716;BME280;59568;52.128;5.434;2023-02-12T00:26:10;103999.84;;;6.76;92.18
71716;BME280;59568;52.128;5.434;2023-02-12T00:28:37;104003.28;;;6.76;92.08
71716;BME280;59568;52.128;5.434;2023-02-12T00:31:18;104001.63;;;6.75;92.38
71716;BME280;59568;52.128;5.434;2023-02-12T00:33:46;104002.44;;;6.76;92.15
71716;BME280;59568;52.128;5.434;2023-02-12T00:36:16;104000.84;;;6.75;92.17
71716;BME280;59568;52.128;5.434;2023-02-12T00:38:43;103997.63;;;6.73;92.44
71716;BME280;59568;52.128;5.434;2023-02-12T00:41:13;104005.25;;;6.74;92.34
71716;BME280;59568;52.128;5.434;2023-02-12T00:43:39;104004.63;;;6.72;92.18
71716;BME280;59568;52.128;5.434;2023-02-12T00:46:06;103991.63;;;6.72;92.51
71716;BME280;59568;52.128;5.434;2023-02-12T00:48:35;103996.00;;;6.72;92.27
71716;BME280;59568;52.128;5.434;2023-02-12T00:51:02;103997.78;;;6.71;92.44
71716;BME280;59568;52.128;5.434;2023-02-12T00:53:29;104001.41;;;6.70;92.31
71716;BME280;59568;52.128;5.434;2023-02-12T00:55:56;103996.38;;;6.69;92.29
71716;BME280;59568;52.128;5.434;2023-02-12T00:58:23;103993.94;;;6.67;92.21
71716;BME280;59568;52.128;5.434;2023-02-12T01:00:50;103998.34;;;6.67;92.52
71716;BME280;59568;52.128;5.434;2023-02-12T01:03:17;104002.75;;;6.66;92.75
71716;BME280;59568;52.128;5.434;2023-02-12T01:05:43;104001.91;;;6.66;92.43
71716;BME280;59568;52.128;5.434;2023-02-12T01:08:14;103997.88;;;6.63;92.51
71716;BME280;59568;52.128;5.434;2023-02-12T01:10:42;104000.50;;;6.63;92.53
71716;BME280;59568;52.128;5.434;2023-02-12T01:13:12;104009.63;;;6.59;92.46
71716;BME280;59568;52.128;5.434;2023-02-12T01:15:40;104007.03;;;6.59;92.43
71716;BME280;59568;52.128;5.434;2023-02-12T01:18:08;103998.28;;;6.60;92.79
71716;BME280;59568;52.128;5.434;2023-02-12T01:20:34;104003.47;;;6.60;92.72
71716;BME280;59568;52.128;5.434;2023-02-12T01:23:01;104003.47;;;6.60;92.73
71716;BME280;59568;52.128;5.434;2023-02-12T01:25:27;103997.66;;;6.58;92.50
71716;BME280;59568;52.128;5.434;2023-02-12T01:27:54;103997.00;;;6.56;92.51
71716;BME280;59568;52.128;5.434;2023-02-12T01:30:21;104003.97;;;6.55;92.32
71716;BME280;59568;52.128;5.434;2023-02-12T01:32:49;104004.97;;;6.54;92.61
71716;BME280;59568;52.128;5.434;2023-02-12T01:35:16;104005.97;;;6.53;92.38
71716;BME280;59568;52.128;5.434;2023-02-12T01:37:42;103991.38;;;6.52;92.50
71716;BME280;59568;52.128;5.434;2023-02-12T01:40:13;103997.38;;;6.53;92.66
71716;BME280;59568;52.128;5.434;2023-02-12T01:42:41;103999.34;;;6.51;92.65
71716;BME280;59568;52.128;5.434;2023-02-12T01:47:41;103999.06;;;6.46;92.50
71716;BME280;59568;52.128;5.434;2023-02-12T01:50:14;104002.03;;;6.43;92.25
71716;BME280;59568;52.128;5.434;2023-02-12T01:52:45;103998.00;;;6.40;92.58
71716;BME280;59568;52.128;5.434;2023-02-12T01:55:14;103995.56;;;6.38;92.63
71716;BME280;59568;52.128;5.434;2023-02-12T01:57:42;104005.34;;;6.36;92.68
71716;BME280;59568;52.128;5.434;2023-02-12T02:00:14;104005.06;;;6.31;92.70
71716;BME280;59568;52.128;5.434;2023-02-12T02:02:48;104001.03;;;6.29;92.66
71716;BME280;59568;52.128;5.434;2023-02-12T02:05:36;103999.78;;;6.25;92.50
71716;BME280;59568;52.128;5.434;2023-02-12T02:08:04;103990.91;;;6.19;92.43
71716;BME280;59568;52.128;5.434;2023-02-12T02:10:31;103990.00;;;6.12;92.52
71716;BME280;59568;52.128;5.434;2023-02-12T02:12:57;103998.31;;;6.07;92.34
71716;BME280;59568;52.128;5.434;2023-02-12T02:15:46;104006.81;;;6.01;92.60
71716;BME280;59568;52.128;5.434;2023-02-12T02:18:22;104008.31;;;5.95;92.83
71716;BME280;59568;52.128;5.434;2023-02-12T02:24:20;104004.41;;;5.91;92.81
71716;BME280;59568;52.128;5.434;2023-02-12T02:27:12;103993.41;;;5.89;92.90
71716;BME280;59568;52.128;5.434;2023-02-12T02:37:47;103995.38;;;5.87;93.33
71716;BME280;59568;52.128;5.434;2023-02-12T02:40:18;103994.75;;;5.85;93.18
71716;BME280;59568;52.128;5.434;2023-02-12T02:42:59;103989.75;;;5.84;93.66
71716;BME280;59568;52.128;5.434;2023-02-12T02:45:34;103994.75;;;5.85;93.44
71716;BME280;59568;52.128;5.434;2023-02-12T02:50:43;103988.28;;;5.81;93.70
71716;BME280;59568;52.128;5.434;2023-02-12T02:53:32;103983.47;;;5.78;93.63
71716;BME280;59568;52.128;5.434;2023-02-12T02:56:02;103979.06;;;5.78;93.38
71716;BME280;59568;52.128;5.434;2023-02-12T02:58:35;103979.06;;;5.78;93.66
71716;BME280;59568;52.128;5.434;2023-02-12T03:01:08;103983.47;;;5.78;93.57
71716;BME280;59568;52.128;5.434;2023-02-12T03:03:47;103979.88;;;5.79;93.29
71716;BME280;59568;52.128;5.434;2023-02-12T03:06:23;103981.84;;;5.77;93.89
71716;BME280;59568;52.128;5.434;2023-02-12T03:08:57;103982.84;;;5.76;93.78
71716;BME280;59568;52.128;5.434;2023-02-12T03:11:28;103974.41;;;5.74;93.68
71716;BME280;59568;52.128;5.434;2023-02-12T03:16:34;103975.56;;;5.71;94.02
71716;BME280;59568;52.128;5.434;2023-02-12T03:19:22;103975.38;;;5.73;94.10
71716;BME280;59568;52.128;5.434;2023-02-12T03:24:25;103971.81;;;5.74;93.89
71716;BME280;59568;52.128;5.434;2023-02-12T03:27:04;103967.44;;;5.74;94.32
71716;BME280;59568;52.128;5.434;2023-02-12T03:29:32;103974.84;;;5.77;94.31
71716;BME280;59568;52.128;5.434;2023-02-12T03:35:23;103981.50;;;5.80;94.56
71716;BME280;59568;52.128;5.434;2023-02-12T03:43:19;103982.41;;;5.87;94.46
71716;BME280;59568;52.128;5.434;2023-02-12T03:45:56;103984.34;;;5.85;94.45
71716;BME280;59568;52.128;5.434;2023-02-12T03:49:01;103982.94;;;5.83;94.25
71716;BME280;59568;52.128;5.434;2023-02-12T03:51:36;103982.31;;;5.80;94.23
71716;BME280;59568;52.128;5.434;2023-02-12T03:54:05;103979.06;;;5.78;94.42
71716;BME280;59568;52.128;5.434;2023-02-12T03:56:43;103989.47;;;5.78;94.45
71716;BME280;59568;52.128;5.434;2023-02-12T03:59:11;103991.09;;;5.79;94.34
71716;BME280;59568;52.128;5.434;2023-02-12T04:01:38;103998.03;;;5.79;94.33
71716;BME280;59568;52.128;5.434;2023-02-12T04:04:07;104003.06;;;5.80;94.69
71716;BME280;59568;52.128;5.434;2023-02-12T04:06:35;103997.69;;;5.82;94.80
71716;BME280;59568;52.128;5.434;2023-02-12T04:09:06;104000.94;;;5.84;94.62
71716;BME280;59568;52.128;5.434;2023-02-12T04:12:01;104005.94;;;5.86;94.62
71716;BME280;59568;52.128;5.434;2023-02-12T04:14:48;104001.56;;;5.86;94.62
71716;BME280;59568;52.128;5.434;2023-02-12T04:17:31;104001.56;;;5.86;94.44
71716;BME280;59568;52.128;5.434;2023-02-12T04:23:40;104011.16;;;5.86;94.53
71716;BME280;59568;52.128;5.434;2023-02-12T04:26:21;104007.72;;;5.85;94.28
71716;BME280;59568;52.128;5.434;2023-02-12T04:34:08;104011.16;;;5.86;94.45
71716;BME280;59568;52.128;5.434;2023-02-12T04:36:50;104017.13;;;5.86;94.45
71716;BME280;59568;52.128;5.434;2023-02-12T04:39:24;104020.69;;;5.85;94.64
71716;BME280;59568;52.128;5.434;2023-02-12T04:41:52;104019.09;;;5.84;95.01
71716;BME280;59568;52.128;5.434;2023-02-12T04:44:24;104021.69;;;5.84;94.68
71716;BME280;59568;52.128;5.434;2023-02-12T04:46:51;104017.31;;;5.85;94.75
71716;BME280;59568;52.128;5.434;2023-02-12T04:49:20;104020.69;;;5.85;94.74
71716;BME280;59568;52.128;5.434;2023-02-12T04:51:48;104029.47;;;5.84;94.61
71716;BME280;59568;52.128;5.434;2023-02-12T04:54:16;104029.66;;;5.83;94.69
71716;BME280;59568;52.128;5.434;2023-02-12T04:56:43;104027.22;;;5.81;94.75
71716;BME280;59568;52.128;5.434;2023-02-12T04:59:11;104028.69;;;5.84;94.72
71716;BME280;59568;52.128;5.434;2023-02-12T05:01:38;104018.28;;;5.84;94.75
71716;BME280;59568;52.128;5.434;2023-02-12T05:04:06;104024.28;;;5.84;94.94
71716;BME280;59568;52.128;5.434;2023-02-12T05:06:37;104029.13;;;5.87;95.39
71716;BME280;59568;52.128;5.434;2023-02-12T05:09:05;104028.16;;;5.88;95.24
71716;BME280;59568;52.128;5.434;2023-02-12T05:11:31;104033.97;;;5.90;94.97
71716;BME280;59568;52.128;5.434;2023-02-12T05:13:58;104032.16;;;5.91;95.21
71716;BME280;59568;52.128;5.434;2023-02-12T05:16:25;104025.38;;;5.90;94.79
71716;BME280;59568;52.128;5.434;2023-02-12T05:18:51;104023.59;;;5.90;95.11
71716;BME280;59568;52.128;5.434;2023-02-12T05:21:18;104027.34;;;5.88;94.58
71716;BME280;59568;52.128;5.434;2023-02-12T05:23:44;104025.88;;;5.85;94.84
71716;BME280;59568;52.128;5.434;2023-02-12T05:26:13;104021.53;;;5.86;94.93
71716;BME280;59568;52.128;5.434;2023-02-12T05:28:40;104027.50;;;5.86;95.29
71716;BME280;59568;52.128;5.434;2023-02-12T05:31:11;104028.47;;;5.85;94.71
71716;BME280;59568;52.128;5.434;2023-02-12T05:33:41;104028.31;;;5.87;94.58
71716;BME280;59568;52.128;5.434;2023-02-12T05:36:10;104031.06;;;5.85;94.82
71716;BME280;59568;52.128;5.434;2023-02-12T05:38:37;104038.06;;;5.85;94.81
71716;BME280;59568;52.128;5.434;2023-02-12T05:41:06;104033.66;;;5.85;94.96
71716;BME280;59568;52.128;5.434;2023-02-12T05:43:33;104031.53;;;5.89;94.99
71716;BME280;59568;52.128;5.434;2023-02-12T05:46:01;104030.75;;;5.88;95.12
71716;BME280;59568;52.128;5.434;2023-02-12T05:48:28;104032.53;;;5.88;95.08
71716;BME280;59568;52.128;5.434;2023-02-12T05:51:01;104039.31;;;5.89;94.83
71716;BME280;59568;52.128;5.434;2023-02-12T05:53:29;104034.94;;;5.89;94.69
71716;BME280;59568;52.128;5.434;2023-02-12T05:58:34;104035.94;;;5.88;94.89
71716;BME280;59568;52.128;5.434;2023-02-12T06:01:02;104036.91;;;5.87;95.05
71716;BME280;59568;52.128;5.434;2023-02-12T06:03:28;104043.72;;;5.88;95.16
71716;BME280;59568;52.128;5.434;2023-02-12T06:05:55;104037.91;;;5.86;94.83
71716;BME280;59568;52.128;5.434;2023-02-12T06:08:22;104030.09;;;5.86;95.01
71716;BME280;59568;52.128;5.434;2023-02-12T06:10:48;104039.84;;;5.84;94.98
71716;BME280;59568;52.128;5.434;2023-02-12T06:13:15;104045.38;;;5.81;94.95
71716;BME280;59568;52.128;5.434;2023-02-12T06:15:41;104047.81;;;5.83;94.97
71716;BME280;59568;52.128;5.434;2023-02-12T06:18:08;104050.25;;;5.84;95.30
71716;BME280;59568;52.128;5.434;2023-02-12T06:20:37;104044.06;;;5.85;95.28
71716;BME280;59568;52.128;5.434;2023-02-12T06:23:05;104041.28;;;5.87;95.38
71716;BME280;59568;52.128;5.434;2023-02-12T06:25:31;104041.91;;;5.89;95.29
71716;BME280;59568;52.128;5.434;2023-02-12T06:27:58;104038.53;;;5.88;95.07
71716;BME280;59568;52.128;5.434;2023-02-12T06:30:24;104034.94;;;5.89;95.32
71716;BME280;59568;52.128;5.434;2023-02-12T06:32:51;104033.34;;;5.88;95.18
71716;BME280;59568;52.128;5.434;2023-02-12T06:35:18;104036.72;;;5.89;95.28
71716;BME280;59568;52.128;5.434;2023-02-12T06:37:44;104037.53;;;5.89;94.86
71716;BME280;59568;52.128;5.434;2023-02-12T06:40:11;104041.13;;;5.88;94.88
71716;BME280;59568;52.128;5.434;2023-02-12T06:42:38;104045.50;;;5.88;94.81
71716;BME280;59568;52.128;5.434;2023-02-12T06:45:04;104044.88;;;5.86;94.89
71716;BME280;59568;52.128;5.434;2023-02-12T06:47:31;104048.59;;;5.83;94.94
71716;BME280;59568;52.128;5.434;2023-02-12T06:49:57;104044.25;;;5.84;94.88
71716;BME280;59568;52.128;5.434;2023-02-12T06:52:24;104051.03;;;5.85;94.99
71716;BME280;59568;52.128;5.434;2023-02-12T06:54:50;104051.22;;;5.83;94.93
71716;BME280;59568;52.128;5.434;2023-02-12T06:57:17;104045.22;;;5.83;95.05
71716;BME280;59568;52.128;5.434;2023-02-12T06:59:43;104059.81;;;5.84;94.72
71716;BME280;59568;52.128;5.434;2023-02-12T07:02:10;104060.63;;;5.84;95.08
71716;BME280;59568;52.128;5.434;2023-02-12T07:04:37;104061.41;;;5.85;94.68
71716;BME280;59568;52.128;5.434;2023-02-12T07:07:04;104068.41;;;5.84;94.83
71716;BME280;59568;52.128;5.434;2023-02-12T07:09:31;104064.81;;;5.85;95.11
71716;BME280;59568;52.128;5.434;2023-02-12T07:11:58;104064.81;;;5.85;94.89
71716;BME280;59568;52.128;5.434;2023-02-12T07:14:25;104066.28;;;5.88;94.97
71716;BME280;59568;52.128;5.434;2023-02-12T07:16:54;104061.88;;;5.88;94.79
71716;BME280;59568;52.128;5.434;2023-02-12T07:19:23;104081.50;;;5.91;94.86
71716;BME280;59568;52.128;5.434;2023-02-12T07:21:51;104071.91;;;5.91;94.93
71716;BME280;59568;52.128;5.434;2023-02-12T07:24:17;104077.09;;;5.91;94.63
71716;BME280;59568;52.128;5.434;2023-02-12T07:26:44;104079.69;;;5.91;94.88
71716;BME280;59568;52.128;5.434;2023-02-12T07:29:10;104083.91;;;5.92;94.89
71716;BME280;59568;52.128;5.434;2023-02-12T07:31:40;104081.94;;;5.94;94.65
71716;BME280;59568;52.128;5.434;2023-02-12T07:34:06;104086.00;;;5.97;94.62
71716;BME280;59568;52.128;5.434;2023-02-12T07:36:33;104090.03;;;5.99;94.50
71716;BME280;59568;52.128;5.434;2023-02-12T07:39:00;104091.50;;;6.02;94.28
71716;BME280;59568;52.128;5.434;2023-02-12T07:41:32;104089.72;;;6.03;94.26
71716;BME280;59568;52.128;5.434;2023-02-12T07:44:02;104093.41;;;6.08;94.01
71716;BME280;59568;52.128;5.434;2023-02-12T07:46:38;104093.25;;;6.10;94.28
71716;BME280;59568;52.128;5.434;2023-02-12T07:49:06;104094.84;;;6.11;94.16
71716;BME280;59568;52.128;5.434;2023-02-12T07:51:34;104094.50;;;6.14;94.21
71716;BME280;59568;52.128;5.434;2023-02-12T07:54:01;104092.53;;;6.16;93.90
71716;BME280;59568;52.128;5.434;2023-02-12T07:56:30;104099.97;;;6.19;93.72
71716;BME280;59568;52.128;5.434;2023-02-12T07:58:59;104091.19;;;6.20;93.74
71716;BME280;59568;52.128;5.434;2023-02-12T08:01:28;104094.44;;;6.22;93.85
71716;BME280;59568;52.128;5.434;2023-02-12T08:04:01;104099.25;;;6.25;93.48
71716;BME280;59568;52.128;5.434;2023-02-12T08:06:31;104107.69;;;6.27;93.61
71716;BME280;59568;52.128;5.434;2023-02-12T08:08:59;104105.72;;;6.29;93.58
71716;BME280;59568;52.128;5.434;2023-02-12T08:11:27;104107.34;;;6.30;93.48
71716;BME280;59568;52.128;5.434;2023-02-12T08:13:56;104113.16;;;6.32;93.45
71716;BME280;59568;52.128;5.434;2023-02-12T08:16:24;104117.72;;;6.30;93.27
71716;BME280;59568;52.128;5.434;2023-02-12T08:18:52;104114.31;;;6.30;93.21
71716;BME280;59568;52.128;5.434;2023-02-12T08:21:21;104116.56;;;6.33;93.18
71716;BME280;59568;52.128;5.434;2023-02-12T08:23:48;104125.44;;;6.38;93.27
71716;BME280;59568;52.128;5.434;2023-02-12T08:26:21;104124.13;;;6.43;93.42
71716;BME280;59568;52.128;5.434;2023-02-12T08:28:56;104122.16;;;6.45;92.94
71716;BME280;59568;52.128;5.434;2023-02-12T08:31:25;104127.59;;;6.50;93.04
71716;BME280;59568;52.128;5.434;2023-02-12T08:33:53;104124.66;;;6.53;92.79
71716;BME280;59568;52.128;5.434;2023-02-12T08:36:26;104128.53;;;6.57;92.86
71716;BME280;59568;52.128;5.434;2023-02-12T08:38:53;104131.59;;;6.60;92.59
71716;BME280;59568;52.128;5.434;2023-02-12T08:41:22;104137.41;;;6.63;92.41
71716;BME280;59568;52.128;5.434;2023-02-12T08:43:51;104137.25;;;6.64;92.62
71716;BME280;59568;52.128;5.434;2023-02-12T08:46:23;104137.88;;;6.66;92.65
71716;BME280;59568;52.128;5.434;2023-02-12T08:49:10;104146.31;;;6.68;92.18
71716;BME280;59568;52.128;5.434;2023-02-12T08:51:43;104146.72;;;6.72;92.33
71716;BME280;59568;52.128;5.434;2023-02-12T08:54:12;104149.16;;;6.73;92.35
71716;BME280;59568;52.128;5.434;2023-02-12T08:56:39;104151.41;;;6.76;92.44
71716;BME280;59568;52.128;5.434;2023-02-12T08:59:07;104152.84;;;6.79;92.46
71716;BME280;59568;52.128;5.434;2023-02-12T09:01:36;104152.66;;;6.80;92.75
71716;BME280;59568;52.128;5.434;2023-02-12T09:04:14;104144.03;;;6.80;92.67
71716;BME280;59568;52.128;5.434;2023-02-12T09:06:44;104149.69;;;6.84;92.49
71716;BME280;59568;52.128;5.434;2023-02-12T09:09:11;104147.72;;;6.86;92.48
71716;BME280;59568;52.128;5.434;2023-02-12T09:11:37;104155.19;;;6.89;92.24
71716;BME280;59568;52.128;5.434;2023-02-12T09:14:06;104147.00;;;6.92;92.41
71716;BME280;59568;52.128;5.434;2023-02-12T09:16:35;104147.84;;;6.92;91.88
71716;BME280;59568;52.128;5.434;2023-02-12T09:19:02;104146.50;;;6.96;91.82
71716;BME280;59568;52.128;5.434;2023-02-12T09:21:29;104155.72;;;6.99;91.88
71716;BME280;59568;52.128;5.434;2023-02-12T09:23:56;104161.19;;;7.04;91.93
71716;BME280;59568;52.128;5.434;2023-02-12T09:26:23;104159.22;;;7.06;92.11
71716;BME280;59568;52.128;5.434;2023-02-12T09:28:53;104169.59;;;7.06;91.92
71716;BME280;59568;52.128;5.434;2023-02-12T09:31:23;104160.84;;;7.07;91.47
71716;BME280;59568;52.128;5.434;2023-02-12T09:33:53;104166.66;;;7.09;91.80
71716;BME280;59568;52.128;5.434;2023-02-12T09:36:21;104162.09;;;7.11;91.61
71716;BME280;59568;52.128;5.434;2023-02-12T09:38:48;104159.78;;;7.16;91.86
71716;BME280;59568;52.128;5.434;2023-02-12T09:44:14;104150.41;;;7.22;91.40
71716;BME280;59568;52.128;5.434;2023-02-12T09:49:37;104156.06;;;7.26;91.41
71716;BME280;59568;52.128;5.434;2023-02-12T09:52:14;104150.13;;;7.32;91.16
71716;BME280;59568;52.128;5.434;2023-02-12T09:54:43;104157.59;;;7.35;91.12
71716;BME280;59568;52.128;5.434;2023-02-12T09:57:19;104153.66;;;7.39;91.16
71716;BME280;59568;52.128;5.434;2023-02-12T09:59:55;104156.88;;;7.41;90.85
71716;BME280;59568;52.128;5.434;2023-02-12T10:02:23;104162.53;;;7.45;90.70
71716;BME280;59568;52.128;5.434;2023-02-12T10:04:51;104165.19;;;7.51;90.79
71716;BME280;59568;52.128;5.434;2023-02-12T10:15:44;104148.91;;;7.64;90.83
71716;BME280;59568;52.128;5.434;2023-02-12T10:24:34;104161.63;;;7.74;90.43
71716;BME280;59568;52.128;5.434;2023-02-12T10:27:14;104147.81;;;7.73;90.09
71716;BME280;59568;52.128;5.434;2023-02-12T10:29:44;104150.03;;;7.76;89.96
71716;BME280;59568;52.128;5.434;2023-02-12T10:32:24;104150.66;;;7.78;90.21
71716;BME280;59568;52.128;5.434;2023-02-12T10:34:55;104158.91;;;7.82;90.12
71716;BME280;59568;52.128;5.434;2023-02-12T10:40:43;104154.59;;;7.89;89.89
71716;BME280;59568;52.128;5.434;2023-02-12T10:43:11;104153.41;;;7.92;89.83
71716;BME280;59568;52.128;5.434;2023-02-12T10:45:40;104160.03;;;7.94;89.54
71716;BME280;59568;52.128;5.434;2023-02-12T10:53:22;104154.09;;;8.00;88.69
71716;BME280;59568;52.128;5.434;2023-02-12T10:56:03;104159.72;;;8.04;89.05
71716;BME280;59568;52.128;5.434;2023-02-12T10:58:31;104156.78;;;8.07;88.98
71716;BME280;59568;52.128;5.434;2023-02-12T11:00:59;104155.16;;;8.06;88.59
71716;BME280;59568;52.128;5.434;2023-02-12T11:03:29;104143.94;;;8.06;88.21
71716;BME280;59568;52.128;5.434;2023-02-12T11:06:15;104150.38;;;8.10;88.07
71716;BME280;59568;52.128;5.434;2023-02-12T11:08:42;104149.81;;;8.14;88.50
71716;BME280;59568;52.128;5.434;2023-02-12T11:11:15;104158.50;;;8.22;88.42
71716;BME280;59568;52.128;5.434;2023-02-12T11:14:08;104151.31;;;8.24;88.10
71716;BME280;59568;52.128;5.434;2023-02-12T11:16:51;104155.31;;;8.26;88.12
71716;BME280;59568;52.128;5.434;2023-02-12T11:19:21;104151.75;;;8.27;88.01
71716;BME280;59568;52.128;5.434;2023-02-12T11:21:50;104151.53;;;8.29;87.70
71716;BME280;59568;52.128;5.434;2023-02-12T11:24:25;104147.16;;;8.29;87.44
71716;BME280;59568;52.128;5.434;2023-02-12T11:27:11;104146.75;;;8.32;87.25
71716;BME280;59568;52.128;5.434;2023-02-12T11:29:45;104143.78;;;8.35;87.05
71716;BME280;59568;52.128;5.434;2023-02-12T11:32:18;104143.78;;;8.35;87.34
71716;BME280;59568;52.128;5.434;2023-02-12T11:38:00;104140.59;;;8.40;86.83
71716;BME280;59568;52.128;5.434;2023-02-12T11:40:30;104145.66;;;8.42;86.31
71716;BME280;59568;52.128;5.434;2023-02-12T11:43:03;104130.06;;;8.48;86.70
71716;BME280;59568;52.128;5.434;2023-02-12T11:45:43;104131.69;;;8.49;86.15
71716;BME280;59568;52.128;5.434;2023-02-12T11:48:24;104130.09;;;8.55;86.52
71716;BME280;59568;52.128;5.434;2023-02-12T11:50:55;104133.75;;;8.60;86.47
71716;BME280;59568;52.128;5.434;2023-02-12T11:53:27;104137.56;;;8.58;85.93
71716;BME280;59568;52.128;5.434;2023-02-12T11:55:57;104136.75;;;8.57;85.50
71716;BME280;59568;52.128;5.434;2023-02-12T11:58:27;104130.34;;;8.60;85.73
71716;BME280;59568;52.128;5.434;2023-02-12T12:03:37;104138.38;;;8.65;85.44
71716;BME280;59568;52.128;5.434;2023-02-12T12:09:21;104125.00;;;8.75;85.44
71716;BME280;59568;52.128;5.434;2023-02-12T12:14:52;104114.81;;;8.73;84.86
71716;BME280;59568;52.128;5.434;2023-02-12T12:17:52;104118.03;;;8.75;84.28
71716;BME280;59568;52.128;5.434;2023-02-12T12:20:47;104109.44;;;8.82;84.43
71716;BME280;59568;52.128;5.434;2023-02-12T12:23:17;104103.19;;;8.83;83.71
71716;BME280;59568;52.128;5.434;2023-02-12T12:25:53;104107.03;;;8.87;84.24
71716;BME280;59568;52.128;5.434;2023-02-12T12:34:07;104104.81;;;8.84;83.07
71716;BME280;59568;52.128;5.434;2023-02-12T12:39:26;104101.44;;;8.90;83.18
71716;BME280;59568;52.128;5.434;2023-02-12T12:42:23;104101.44;;;8.90;83.00
71716;BME280;59568;52.128;5.434;2023-02-12T12:45:13;104098.44;;;8.93;82.63
71716;BME280;59568;52.128;5.434;2023-02-12T12:48:00;104092.84;;;8.96;82.77
71716;BME280;59568;52.128;5.434;2023-02-12T12:53:57;104088.44;;;8.96;82.64
71716;BME280;59568;52.128;5.434;2023-02-12T13:01:53;104087.03;;;8.94;81.00
71716;BME280;59568;52.128;5.434;2023-02-12T13:12:31;104079.03;;;9.02;82.05
71716;BME280;59568;52.128;5.434;2023-02-12T13:15:12;104073.81;;;9.02;81.82
71716;BME280;59568;52.128;5.434;2023-02-12T13:23:29;104071.97;;;8.96;81.18
71716;BME280;59568;52.128;5.434;2023-02-12T13:28:50;104070.97;;;8.97;81.07
71716;BME280;59568;52.128;5.434;2023-02-12T13:31:20;104069.97;;;8.98;81.16
71716;BME280;59568;52.128;5.434;2023-02-12T13:34:05;104066.94;;;8.94;80.61
71716;BME280;59568;52.128;5.434;2023-02-12T13:36:35;104054.28;;;8.91;80.31
71716;BME280;59568;52.128;5.434;2023-02-12T13:41:39;104057.91;;;8.90;80.38
71716;BME280;59568;52.128;5.434;2023-02-12T13:44:18;104057.91;;;8.90;80.83
71716;BME280;59568;52.128;5.434;2023-02-12T13:47:01;104061.50;;;8.89;80.37
71716;BME280;59568;52.128;5.434;2023-02-12T13:49:53;104053.88;;;8.88;80.28
71716;BME280;59568;52.128;5.434;2023-02-12T13:52:43;104052.28;;;8.87;80.34
71716;BME280;59568;52.128;5.434;2023-02-12T13:55:23;104053.88;;;8.88;80.43
71716;BME280;59568;52.128;5.434;2023-02-12T14:01:43;104043.06;;;8.91;80.96
71716;BME280;59568;52.128;5.434;2023-02-12T14:04:29;104042.63;;;8.87;80.11
71716;BME280;59568;52.128;5.434;2023-02-12T14:07:04;104049.06;;;8.85;79.91
71716;BME280;59568;52.128;5.434;2023-02-12T14:12:26;104043.63;;;8.79;80.36
71716;BME280;59568;52.128;5.434;2023-02-12T14:15:04;104036.78;;;8.78;80.20
71716;BME280;59568;52.128;5.434;2023-02-12T14:27:47;104029.72;;;8.66;80.24
71716;BME280;59568;52.128;5.434;2023-02-12T14:32:55;104024.09;;;8.69;80.29
71716;BME280;59568;52.128;5.434;2023-02-12T14:40:36;104027.88;;;8.59;80.30
71716;BME280;59568;52.128;5.434;2023-02-12T14:43:31;104028.06;;;8.58;80.32
71716;BME280;59568;52.128;5.434;2023-02-12T14:47:03;104026.84;;;8.54;80.06
71716;BME280;59568;52.128;5.434;2023-02-12T14:49:04;104023.22;;;8.48;79.75
71716;BME280;59568;52.128;5.434;2023-02-12T14:52:01;104017.56;;;8.45;79.56
71716;BME280;59568;52.128;5.434;2023-02-12T14:54:39;104017.97;;;8.42;79.81
71716;BME280;59568;52.128;5.434;2023-02-12T14:59:55;104020.69;;;8.33;79.85
71716;BME280;59568;52.128;5.434;2023-02-12T15:02:28;104024.28;;;8.32;80.15
71716;BME280;59568;52.128;5.434;2023-02-12T15:05:00;104038.31;;;8.31;79.95
71716;BME280;59568;52.128;5.434;2023-02-12T15:07:44;104027.47;;;8.28;79.10
71716;BME280;59568;52.128;5.434;2023-02-12T15:10:22;104025.81;;;8.20;79.24
71716;BME280;59568;52.128;5.434;2023-02-12T15:13:07;104029.44;;;8.19;79.26
71716;BME280;59568;52.128;5.434;2023-02-12T15:16:08;104022.59;;;8.18;79.56
71716;BME280;59568;52.128;5.434;2023-02-12T15:21:41;104033.78;;;8.12;79.68
71716;BME280;59568;52.128;5.434;2023-02-12T15:24:10;104022.13;;;8.08;79.84
71716;BME280;59568;52.128;5.434;2023-02-12T15:26:47;104020.50;;;8.07;80.15
71716;BME280;59568;52.128;5.434;2023-02-12T15:29:41;104020.50;;;8.07;79.99
71716;BME280;59568;52.128;5.434;2023-02-12T15:32:15;104023.13;;;8.07;80.20
71716;BME280;59568;52.128;5.434;2023-02-12T15:34:47;104024.75;;;8.08;80.54
71716;BME280;59568;52.128;5.434;2023-02-12T15:37:34;104022.50;;;8.05;80.04
71716;BME280;59568;52.128;5.434;2023-02-12T15:40:01;104024.47;;;8.03;80.08
71716;BME280;59568;52.128;5.434;2023-02-12T15:47:41;104008.81;;;7.96;80.27
71716;BME280;59568;52.128;5.434;2023-02-12T15:50:16;104022.41;;;7.91;80.11
71716;BME280;59568;52.128;5.434;2023-02-12T15:52:45;104009.75;;;7.88;80.09
71716;BME280;59568;52.128;5.434;2023-02-12T15:55:38;104012.75;;;7.85;79.59
71716;BME280;59568;52.128;5.434;2023-02-12T15:58:21;104012.75;;;7.85;79.67
71716;BME280;59568;52.128;5.434;2023-02-12T16:00:48;104005.50;;;7.80;79.46
71716;BME280;59568;52.128;5.434;2023-02-12T16:03:31;104012.50;;;7.80;79.78